Accueil
METAR-TAF:

METAR-TAF

Aéroports :

Aéroport Sandro-Pertini de Turin Caselle

Turin, Italie

latitude: 45-13N, longitude: 007-39E, altitude: 301 m

Observation

Le bulletin a été fait il y a 20 minutes, à 05:50 UTC
Vent 3 kt de ouest/sud-ouest, variant entre sud-ouest et ouest/nord-ouest
Température 1°C
Humidité 100%
Pression 998 hPa
Visibilité: 5000 m
Quelques nuages à une hauteur de 300 ft
Ciel couvert à une hauteur de 1800 ft
brume

METAR: LIMF 050550Z 25003KT 230V290 5000 BR FEW003 OVC018 01/01 Q0998

Heure: 07:10 (06:10 UTC)

Prévision

Le bulletin a été fait il y a 1 heure et 10 minutes, à 05:00 UTC
Prévision valable du 05 à 06 UTC au 06 à 06 UTC
Vent 5 kt de direction variable
Visibilité: 3000 m
Nuages fragmentés à une hauteur de 1000 ft
brume
Temporairement
du 05 à 11 UTC au 05 à 16 UTC
Nuages fragmentés à une hauteur de 500 ft
pluie, neige

TAF: LIMF 050500Z 0506/0606 VRB05KT 3000 BR BKN010 TEMPO 0511/0516 RASN BKN005

Observations et prévisions météorologiques de plus de 4000 aéroports (messages METAR et TAF).

Les stations disponibles sont représentées par des disques jaunes et rouges sur la carte.

Passer la souris dessus pour voir le nom de la station.

Cliquer dessus pour voir les observations et prévisions météorologiques.

Pour changer de carte: cliquez sur les boutons verts avec une croix noire pour zoomer, sur le bouton vert avec un tiret pour effectuer un zoom arrière, ou sur les flèches vertes pour les cartes adjacentes.


METAR-TAF: